Time;durP1;ratioP1;P1;durP2;ratioP2;P2;SDS_P1;SDS_P2;PMS_P1;PMS_P2;Temp;Humidity;BMP_temperature;BMP_pressure;BME280_temperature;BME280_humidity;BME280_pressure;Samples;Min_cycle;Max_cycle;Signal;HPM_P1;HPM_P2
2022/11/14 00:02:12;;;;;;;13.25;10.43;;;;;;;;;;5009516;28;20030;-82
2022/11/14 00:04:38;;;;;;;14.55;10.38;;;;;;;;;;4997361;28;20050;-82
2022/11/14 00:07:05;;;;;;;12.25;9.55;;;;;;;;;;5003038;28;20038;-81
2022/11/14 00:09:31;;;;;;;13.88;9.90;;;;;;;;;;5010066;28;20352;-81
2022/11/14 00:11:57;;;;;;;10.98;8.68;;;;;;;;;;4992976;28;20046;-82
2022/11/14 00:14:23;;;;;;;11.13;8.45;;;;;;;;;;4985895;28;20053;-83
2022/11/14 00:16:49;;;;;;;10.55;8.23;;;;;;;;;;5009814;28;20049;-82
2022/11/14 00:19:15;;;;;;;10.43;8.10;;;;;;;;;;5009435;28;20019;-82
2022/11/14 00:21:41;;;;;;;10.13;7.90;;;;;;;;;;4988656;28;20102;-82
2022/11/14 00:24:07;;;;;;;8.73;7.38;;;;;;;;;;4990479;28;20027;-82
2022/11/14 00:26:33;;;;;;;9.10;6.85;;;;;;;;;;4997118;28;20015;-82
2022/11/14 00:28:59;;;;;;;7.80;6.90;;;;;;;;;;4983750;28;20017;-82
2022/11/14 00:31:25;;;;;;;9.15;6.80;;;;;;;;;;4990215;28;20023;-83
2022/11/14 00:33:51;;;;;;;8.55;7.00;;;;;;;;;;4998287;28;20101;-83
2022/11/14 00:36:17;;;;;;;8.18;6.65;;;;;;;;;;4993474;28;20029;-83
2022/11/14 00:38:43;;;;;;;7.55;6.20;;;;;;;;;;5001640;28;20038;-83
2022/11/14 00:41:09;;;;;;;9.32;7.70;;;;;;;;;;5015480;28;20041;-83
2022/11/14 00:43:35;;;;;;;10.23;7.63;;;;;;;;;;5003821;28;20034;-83
2022/11/14 00:46:01;;;;;;;9.75;7.55;;;;;;;;;;4998153;28;20073;-82
2022/11/14 00:48:27;;;;;;;13.25;9.77;;;;;;;;;;4985998;28;20039;-83
2022/11/14 00:50:54;;;;;;;12.55;9.73;;;;;;;;;;4960859;28;20024;-83
2022/11/14 00:53:20;;;;;;;13.90;9.45;;;;;;;;;;4979658;28;20019;-82
2022/11/14 00:55:46;;;;;;;12.93;9.93;;;;;;;;;;4962388;28;20034;-82
2022/11/14 00:58:12;;;;;;;11.50;9.07;;;;;;;;;;4961735;28;20011;-83
2022/11/14 01:00:38;;;;;;;11.65;8.75;;;;;;;;;;4962429;28;20031;-82
2022/11/14 01:03:04;;;;;;;10.70;8.27;;;;;;;;;;4979039;28;20039;-84
2022/11/14 01:05:31;;;;;;;13.18;9.55;;;;;;;;;;4961615;28;20079;-83
2022/11/14 01:07:57;;;;;;;11.00;8.70;;;;;;;;;;5010255;28;20038;-83
2022/11/14 01:10:23;;;;;;;11.30;8.60;;;;;;;;;;4982271;28;20037;-82
2022/11/14 01:12:49;;;;;;;11.52;8.65;;;;;;;;;;4978471;28;20086;-83
2022/11/14 01:15:15;;;;;;;11.63;8.50;;;;;;;;;;4979295;28;20019;-82
2022/11/14 01:17:42;;;;;;;10.75;8.50;;;;;;;;;;4962413;28;20372;-82
2022/11/14 01:20:17;;;;;;;9.48;8.15;;;;;;;;;;4996528;28;20026;-82
2022/11/14 01:22:43;;;;;;;13.32;8.77;;;;;;;;;;4970274;28;20057;-82
2022/11/14 01:25:09;;;;;;;11.13;7.93;;;;;;;;;;4994618;28;20038;-82
2022/11/14 01:27:35;;;;;;;10.05;8.23;;;;;;;;;;4973457;28;20027;-82
2022/11/14 01:30:01;;;;;;;10.57;8.18;;;;;;;;;;4985787;28;20133;-82
2022/11/14 01:32:27;;;;;;;11.43;8.68;;;;;;;;;;5004078;28;20030;-82
2022/11/14 01:34:53;;;;;;;8.57;7.05;;;;;;;;;;4985669;28;20470;-82
2022/11/14 01:37:20;;;;;;;9.02;7.22;;;;;;;;;;4985496;28;20039;-82
2022/11/14 01:39:46;;;;;;;8.02;6.20;;;;;;;;;;4987975;28;20467;-82
2022/11/14 01:42:13;;;;;;;7.93;5.65;;;;;;;;;;4987315;28;20031;-83
2022/11/14 01:44:45;;;;;;;9.93;7.40;;;;;;;;;;4986025;28;20396;-82
2022/11/14 01:47:12;;;;;;;8.13;6.78;;;;;;;;;;4977745;28;20007;-83
2022/11/14 01:49:41;;;;;;;8.75;7.22;;;;;;;;;;4985275;28;20050;-83
2022/11/14 01:52:10;;;;;;;8.52;7.22;;;;;;;;;;4993695;28;20077;-83
2022/11/14 01:54:43;;;;;;;10.38;6.93;;;;;;;;;;5012279;28;20030;-84
2022/11/14 01:57:10;;;;;;;10.38;8.52;;;;;;;;;;4973619;28;20104;-84
2022/11/14 01:59:40;;;;;;;10.85;8.95;;;;;;;;;;4992231;28;20432;-83
2022/11/14 02:02:17;;;;;;;10.95;8.43;;;;;;;;;;5009686;28;20022;-83
2022/11/14 02:04:46;;;;;;;11.27;8.38;;;;;;;;;;4992180;28;20026;-84
2022/11/14 02:07:13;;;;;;;10.93;8.90;;;;;;;;;;5009348;28;20029;-83
2022/11/14 02:09:41;;;;;;;11.98;8.80;;;;;;;;;;4990693;28;20023;-83
2022/11/14 02:12:09;;;;;;;10.88;8.43;;;;;;;;;;5004424;28;20022;-83
2022/11/14 02:14:36;;;;;;;10.75;8.13;;;;;;;;;;5008685;28;20015;-83
2022/11/14 02:17:03;;;;;;;11.73;9.23;;;;;;;;;;4997916;28;20422;-81
2022/11/14 02:19:42;;;;;;;13.02;9.13;;;;;;;;;;4980918;28;20035;-82
2022/11/14 02:22:08;;;;;;;10.88;8.50;;;;;;;;;;4990032;28;20083;-84
2022/11/14 02:24:34;;;;;;;11.82;8.52;;;;;;;;;;4995958;28;20098;-83
2022/11/14 02:27:01;;;;;;;9.93;7.63;;;;;;;;;;4988303;28;20110;-81
2022/11/14 02:29:27;;;;;;;8.45;7.10;;;;;;;;;;4980001;28;20549;-82
2022/11/14 02:31:53;;;;;;;9.48;7.63;;;;;;;;;;4978652;28;20023;-82
2022/11/14 02:34:19;;;;;;;9.52;7.40;;;;;;;;;;4988266;28;20074;-82
2022/11/14 02:36:45;;;;;;;9.90;7.85;;;;;;;;;;4988555;28;20033;-82
2022/11/14 02:39:11;;;;;;;9.43;7.35;;;;;;;;;;4988844;28;20371;-83
2022/11/14 02:41:37;;;;;;;8.30;7.13;;;;;;;;;;4999937;28;20018;-81
2022/11/14 02:44:03;;;;;;;8.38;6.97;;;;;;;;;;5009883;28;20026;-82
2022/11/14 02:46:29;;;;;;;7.85;6.57;;;;;;;;;;4992752;28;20395;-82
2022/11/14 02:48:56;;;;;;;8.82;6.43;;;;;;;;;;4981216;28;20031;-82
2022/11/14 02:51:22;;;;;;;6.50;5.45;;;;;;;;;;5000274;28;20026;-83
2022/11/14 02:53:48;;;;;;;6.45;5.50;;;;;;;;;;5008774;28;20106;-83
2022/11/14 02:56:14;;;;;;;5.80;5.15;;;;;;;;;;4980379;28;20031;-82
2022/11/14 02:58:40;;;;;;;5.53;5.00;;;;;;;;;;4984108;28;20037;-82
2022/11/14 03:01:07;;;;;;;6.57;5.60;;;;;;;;;;4995445;28;20013;-83
2022/11/14 03:03:33;;;;;;;5.60;4.97;;;;;;;;;;4997837;28;20035;-83
2022/11/14 03:06:00;;;;;;;5.72;4.95;;;;;;;;;;5001381;28;20043;-83
2022/11/14 03:08:26;;;;;;;5.78;5.00;;;;;;;;;;4991911;28;20027;-83
2022/11/14 03:10:52;;;;;;;5.63;4.50;;;;;;;;;;4995846;28;20046;-83
2022/11/14 03:13:18;;;;;;;6.50;5.40;;;;;;;;;;4996876;28;20054;-83
2022/11/14 03:15:45;;;;;;;6.63;5.93;;;;;;;;;;4995916;28;20054;-83
2022/11/14 03:18:11;;;;;;;7.20;6.03;;;;;;;;;;4995705;28;20022;-83
2022/11/14 03:20:37;;;;;;;7.88;6.03;;;;;;;;;;4998458;28;20066;-84
2022/11/14 03:23:03;;;;;;;7.70;6.32;;;;;;;;;;5001727;28;20026;-83
2022/11/14 03:25:29;;;;;;;6.82;5.93;;;;;;;;;;5016449;28;20022;-84
2022/11/14 03:27:55;;;;;;;7.78;5.55;;;;;;;;;;5006168;28;20042;-85
2022/11/14 03:30:21;;;;;;;7.03;5.68;;;;;;;;;;4998902;28;20023;-83
2022/11/14 03:32:47;;;;;;;6.88;5.72;;;;;;;;;;4997679;28;20023;-83
2022/11/14 03:35:14;;;;;;;7.07;5.43;;;;;;;;;;4983484;28;20063;-83
2022/11/14 03:37:40;;;;;;;8.43;7.07;;;;;;;;;;4999187;28;20035;-82
2022/11/14 03:40:06;;;;;;;8.50;6.80;;;;;;;;;;4990009;28;20022;-82
2022/11/14 03:42:33;;;;;;;8.70;7.35;;;;;;;;;;4997165;28;20023;-83
2022/11/14 03:44:59;;;;;;;7.85;6.93;;;;;;;;;;4999470;28;20011;-84
2022/11/14 03:47:25;;;;;;;7.57;6.28;;;;;;;;;;4978666;28;20015;-83
2022/11/14 03:49:51;;;;;;;10.63;6.57;;;;;;;;;;4992382;28;20042;-84
2022/11/14 03:52:18;;;;;;;7.82;6.43;;;;;;;;;;5006106;28;20026;-83
2022/11/14 03:54:44;;;;;;;7.70;6.40;;;;;;;;;;4963803;28;20022;-84
2022/11/14 03:57:10;;;;;;;8.82;7.35;;;;;;;;;;4969943;28;20030;-84
2022/11/14 03:59:36;;;;;;;10.07;7.40;;;;;;;;;;4990110;28;20469;-84
2022/11/14 04:02:02;;;;;;;9.32;7.10;;;;;;;;;;4985059;28;20019;-83
2022/11/14 04:04:28;;;;;;;9.05;7.05;;;;;;;;;;4981705;28;20041;-85
2022/11/14 04:06:54;;;;;;;7.93;6.65;;;;;;;;;;4980863;28;20027;-83
2022/11/14 04:09:20;;;;;;;9.23;7.18;;;;;;;;;;4975792;28;20051;-84
2022/11/14 04:11:46;;;;;;;8.45;6.63;;;;;;;;;;4975453;28;20095;-82
2022/11/14 04:14:12;;;;;;;8.30;7.15;;;;;;;;;;4977300;28;20503;-84
2022/11/14 04:16:38;;;;;;;7.78;6.13;;;;;;;;;;4981815;28;20031;-82
2022/11/14 04:19:04;;;;;;;7.22;6.32;;;;;;;;;;4997664;28;20026;-82
2022/11/14 04:21:30;;;;;;;7.40;5.97;;;;;;;;;;5014609;28;20042;-84
2022/11/14 04:23:56;;;;;;;8.75;6.85;;;;;;;;;;4990944;28;20030;-83
2022/11/14 04:26:23;;;;;;;7.40;6.10;;;;;;;;;;4981818;28;20043;-84
2022/11/14 04:28:49;;;;;;;6.80;5.65;;;;;;;;;;4973299;28;20047;-83
2022/11/14 04:31:15;;;;;;;9.63;6.93;;;;;;;;;;4988948;28;20090;-82
2022/11/14 04:33:41;;;;;;;8.68;6.78;;;;;;;;;;4973447;28;20030;-83
2022/11/14 04:36:07;;;;;;;7.43;6.63;;;;;;;;;;4980794;28;20484;-82
2022/11/14 04:38:33;;;;;;;7.93;6.65;;;;;;;;;;4983305;28;20018;-83
2022/11/14 04:40:59;;;;;;;12.82;8.32;;;;;;;;;;4967063;28;20011;-82
2022/11/14 04:43:25;;;;;;;9.07;7.43;;;;;;;;;;4979335;28;20021;-82
2022/11/14 04:45:51;;;;;;;8.82;7.45;;;;;;;;;;5013124;28;20035;-82
2022/11/14 04:48:17;;;;;;;9.32;7.00;;;;;;;;;;5009270;28;20030;-82
2022/11/14 04:50:45;;;;;;;11.18;7.78;;;;;;;;;;4985511;28;20031;-81
2022/11/14 04:53:11;;;;;;;8.70;6.88;;;;;;;;;;4994705;28;20023;-82
2022/11/14 04:55:37;;;;;;;9.18;6.93;;;;;;;;;;5000128;28;20058;-82
2022/11/14 04:58:03;;;;;;;8.98;7.18;;;;;;;;;;4993157;28;20019;-82
2022/11/14 05:00:29;;;;;;;8.88;6.97;;;;;;;;;;4982561;28;20035;-82
2022/11/14 05:02:57;;;;;;;8.52;7.22;;;;;;;;;;4991319;28;20031;-82
2022/11/14 05:05:23;;;;;;;9.55;6.63;;;;;;;;;;4986219;28;20035;-83
2022/11/14 05:07:49;;;;;;;7.57;6.45;;;;;;;;;;4969377;28;20027;-83
2022/11/14 05:10:16;;;;;;;9.85;6.10;;;;;;;;;;4971338;28;20042;-83
2022/11/14 05:12:42;;;;;;;8.43;6.60;;;;;;;;;;4981218;28;20023;-83
2022/11/14 05:15:08;;;;;;;7.78;6.05;;;;;;;;;;4981258;28;20113;-83
2022/11/14 05:17:34;;;;;;;7.50;6.35;;;;;;;;;;4980444;28;20050;-83
2022/11/14 05:20:00;;;;;;;7.40;6.18;;;;;;;;;;4980289;28;20030;-82
2022/11/14 05:22:26;;;;;;;7.63;6.22;;;;;;;;;;4982660;28;20095;-82
2022/11/14 05:24:52;;;;;;;6.95;5.18;;;;;;;;;;4984315;28;20026;-81
2022/11/14 05:27:18;;;;;;;5.53;4.78;;;;;;;;;;4997750;28;20030;-82
2022/11/14 05:29:44;;;;;;;6.03;4.65;;;;;;;;;;4981028;28;20062;-82
2022/11/14 05:32:10;;;;;;;7.40;5.50;;;;;;;;;;4967808;28;20026;-82
2022/11/14 05:34:36;;;;;;;6.78;5.68;;;;;;;;;;4977394;28;20038;-83
2022/11/14 05:37:03;;;;;;;5.75;4.75;;;;;;;;;;4965851;28;20392;-83
2022/11/14 05:39:29;;;;;;;6.18;5.18;;;;;;;;;;4979953;28;20388;-83
2022/11/14 05:41:55;;;;;;;6.18;5.00;;;;;;;;;;4973170;28;20392;-83
2022/11/14 05:44:22;;;;;;;6.50;5.28;;;;;;;;;;4959563;28;20456;-84
2022/11/14 05:46:48;;;;;;;9.10;6.25;;;;;;;;;;4971491;28;20147;-83
2022/11/14 05:49:14;;;;;;;7.93;6.32;;;;;;;;;;4977907;28;20027;-83
2022/11/14 05:51:40;;;;;;;8.15;6.28;;;;;;;;;;4956431;28;20055;-83
2022/11/14 05:54:06;;;;;;;8.52;6.10;;;;;;;;;;4959929;28;20031;-83
2022/11/14 05:56:32;;;;;;;8.43;6.43;;;;;;;;;;4977607;28;20125;-82
2022/11/14 05:58:58;;;;;;;9.23;6.90;;;;;;;;;;4977805;28;20029;-83
2022/11/14 06:01:24;;;;;;;9.30;7.38;;;;;;;;;;4978656;28;20042;-83
2022/11/14 06:03:50;;;;;;;10.65;7.70;;;;;;;;;;4978295;28;20035;-83
2022/11/14 06:06:18;;;;;;;9.52;6.72;;;;;;;;;;4960736;28;20034;-82
2022/11/14 06:08:44;;;;;;;9.48;7.38;;;;;;;;;;4962033;28;20058;-82
2022/11/14 06:11:21;;;;;;;12.00;8.55;;;;;;;;;;4966715;28;20094;-83
2022/11/14 06:13:47;;;;;;;9.93;7.57;;;;;;;;;;4988133;28;20054;-81
2022/11/14 06:16:14;;;;;;;10.20;7.75;;;;;;;;;;4973393;28;20035;-81
2022/11/14 06:18:41;;;;;;;9.43;7.25;;;;;;;;;;4986530;28;20062;-82
2022/11/14 06:21:17;;;;;;;10.57;7.97;;;;;;;;;;4978411;28;20034;-83
2022/11/14 06:23:43;;;;;;;9.73;7.25;;;;;;;;;;4960324;28;20490;-82
2022/11/14 06:26:23;;;;;;;10.35;7.07;;;;;;;;;;4966400;28;20041;-83
2022/11/14 06:28:49;;;;;;;10.40;7.18;;;;;;;;;;4966539;28;20404;-83
2022/11/14 06:31:16;;;;;;;11.02;7.13;;;;;;;;;;4968923;28;20019;-84
2022/11/14 06:33:42;;;;;;;7.65;6.22;;;;;;;;;;4971308;28;20024;-83
2022/11/14 06:36:08;;;;;;;8.77;6.15;;;;;;;;;;4958365;29;20119;-83
2022/11/14 06:38:36;;;;;;;8.77;6.40;;;;;;;;;;4958562;29;20035;-83
2022/11/14 06:41:02;;;;;;;8.20;5.88;;;;;;;;;;4958599;29;20066;-82
2022/11/14 06:43:29;;;;;;;7.80;5.25;;;;;;;;;;4960892;28;20031;-82
2022/11/14 06:45:55;;;;;;;7.45;5.57;;;;;;;;;;4977637;28;20089;-83
2022/11/14 06:48:21;;;;;;;9.15;6.00;;;;;;;;;;4960773;28;20050;-84
2022/11/14 06:50:51;;;;;;;9.40;6.10;;;;;;;;;;4959944;28;20027;-83
2022/11/14 06:53:17;;;;;;;9.48;6.60;;;;;;;;;;4983412;28;20019;-83
2022/11/14 06:55:43;;;;;;;8.20;6.00;;;;;;;;;;4970169;28;20042;-83
2022/11/14 06:58:09;;;;;;;7.47;5.97;;;;;;;;;;4983885;28;20026;-84
2022/11/14 07:00:35;;;;;;;8.45;5.53;;;;;;;;;;4997864;28;20061;-83
2022/11/14 07:03:09;;;;;;;9.00;6.07;;;;;;;;;;5000736;28;20030;-82
2022/11/14 07:05:36;;;;;;;9.13;5.68;;;;;;;;;;5000529;28;20023;-82
2022/11/14 07:08:02;;;;;;;7.53;5.82;;;;;;;;;;4998507;28;20015;-82
2022/11/14 07:10:28;;;;;;;6.22;4.95;;;;;;;;;;4998257;28;20114;-83
2022/11/14 07:12:54;;;;;;;7.38;4.80;;;;;;;;;;5007700;28;20037;-82
2022/11/14 07:15:21;;;;;;;5.95;4.35;;;;;;;;;;4996060;28;20039;-84
2022/11/14 07:17:47;;;;;;;10.35;5.97;;;;;;;;;;4955829;29;20035;-83
2022/11/14 07:20:14;;;;;;;7.72;5.70;;;;;;;;;;4969713;29;20019;-84
2022/11/14 07:22:40;;;;;;;12.57;6.30;;;;;;;;;;4970400;29;20068;-85
2022/11/14 07:25:09;;;;;;;9.40;6.20;;;;;;;;;;4963724;28;20038;-83
2022/11/14 07:27:35;;;;;;;10.15;6.28;;;;;;;;;;4983767;28;20073;-84
2022/11/14 07:30:02;;;;;;;6.78;5.43;;;;;;;;;;4984491;28;20409;-84
2022/11/14 07:32:28;;;;;;;8.93;6.80;;;;;;;;;;4983579;28;20074;-83
2022/11/14 07:34:54;;;;;;;7.80;5.93;;;;;;;;;;4956977;28;20046;-85
2022/11/14 07:37:20;;;;;;;8.45;5.38;;;;;;;;;;4986049;28;20026;-84
2022/11/14 07:39:46;;;;;;;6.43;4.97;;;;;;;;;;5006163;28;20031;-84
2022/11/14 07:42:12;;;;;;;7.82;5.93;;;;;;;;;;4987664;28;20113;-83
2022/11/14 07:44:38;;;;;;;7.72;5.13;;;;;;;;;;5009751;28;20475;-81
2022/11/14 07:47:04;;;;;;;6.53;4.97;;;;;;;;;;4999629;28;20050;-82
2022/11/14 07:49:30;;;;;;;5.53;4.82;;;;;;;;;;4978210;28;20046;-83
2022/11/14 07:51:56;;;;;;;6.13;5.07;;;;;;;;;;4994801;28;20047;-82
2022/11/14 07:54:22;;;;;;;7.38;4.85;;;;;;;;;;4998938;28;20086;-81
2022/11/14 07:56:49;;;;;;;7.97;6.15;;;;;;;;;;4998323;28;20123;-82
2022/11/14 07:59:18;;;;;;;9.50;5.30;;;;;;;;;;4984614;28;20022;-83
2022/11/14 08:01:44;;;;;;;5.93;4.45;;;;;;;;;;4978353;28;20321;-79
2022/11/14 08:04:10;;;;;;;7.30;5.72;;;;;;;;;;4996631;28;20039;-79
2022/11/14 08:06:36;;;;;;;5.88;4.72;;;;;;;;;;4979665;28;20023;-79
2022/11/14 08:09:02;;;;;;;8.38;4.78;;;;;;;;;;4996835;28;20046;-79
2022/11/14 08:11:46;;;;;;;7.70;5.13;;;;;;;;;;4997477;28;20010;-79
2022/11/14 08:14:12;;;;;;;7.40;5.18;;;;;;;;;;4979529;28;20093;-78
2022/11/14 08:16:38;;;;;;;7.50;4.90;;;;;;;;;;4997141;28;20055;-79
2022/11/14 08:19:05;;;;;;;7.50;5.55;;;;;;;;;;4980314;28;20183;-78
2022/11/14 08:21:31;;;;;;;5.65;4.50;;;;;;;;;;4997309;28;20030;-78
2022/11/14 08:23:57;;;;;;;7.07;4.60;;;;;;;;;;4980700;28;20041;-78
2022/11/14 08:26:23;;;;;;;6.50;4.65;;;;;;;;;;4967805;28;20011;-79
2022/11/14 08:28:53;;;;;;;5.85;4.43;;;;;;;;;;4976444;28;20070;-79
2022/11/14 08:31:19;;;;;;;5.25;4.00;;;;;;;;;;4981762;28;20085;-80
2022/11/14 08:33:46;;;;;;;10.85;5.15;;;;;;;;;;4969278;28;20022;-78
2022/11/14 08:36:12;;;;;;;5.45;4.28;;;;;;;;;;4986059;28;20035;-79
2022/11/14 08:38:38;;;;;;;7.43;5.22;;;;;;;;;;4989487;28;20055;-79
2022/11/14 08:41:04;;;;;;;7.60;5.32;;;;;;;;;;4988921;28;20368;-82
2022/11/14 08:43:31;;;;;;;8.15;5.03;;;;;;;;;;4963756;28;20030;-79
2022/11/14 08:46:01;;;;;;;7.22;4.93;;;;;;;;;;4981252;28;20027;-82
2022/11/14 08:48:27;;;;;;;7.15;5.30;;;;;;;;;;4969421;28;20045;-85
2022/11/14 08:50:53;;;;;;;6.28;5.03;;;;;;;;;;4971205;28;20035;-87
2022/11/14 08:53:19;;;;;;;6.72;5.43;;;;;;;;;;4983487;28;20037;-84
2022/11/14 08:55:46;;;;;;;6.97;5.07;;;;;;;;;;4973161;28;20038;-84
2022/11/14 08:58:12;;;;;;;9.75;5.45;;;;;;;;;;4979776;28;20105;-85
2022/11/14 09:00:38;;;;;;;8.77;5.40;;;;;;;;;;4957067;28;20402;-84
2022/11/14 09:03:13;;;;;;;6.30;4.90;;;;;;;;;;4965411;29;20187;-84
2022/11/14 09:05:43;;;;;;;7.93;4.70;;;;;;;;;;4947758;29;20075;-83
2022/11/14 09:08:09;;;;;;;8.20;4.18;;;;;;;;;;4945210;29;20031;-84
2022/11/14 09:10:37;;;;;;;6.05;4.25;;;;;;;;;;4943058;29;20073;-84
2022/11/14 09:13:03;;;;;;;4.28;3.88;;;;;;;;;;4946897;28;20030;-85
2022/11/14 09:15:32;;;;;;;5.60;4.07;;;;;;;;;;4960512;28;20026;-84
2022/11/14 09:17:59;;;;;;;7.15;5.10;;;;;;;;;;4963203;28;20489;-85
2022/11/14 09:20:26;;;;;;;4.95;4.47;;;;;;;;;;4964075;28;20023;-84
2022/11/14 09:22:52;;;;;;;5.70;4.78;;;;;;;;;;4962999;28;20081;-85
2022/11/14 09:25:20;;;;;;;4.55;3.97;;;;;;;;;;4969593;28;20031;-83
2022/11/14 09:28:02;;;;;;;5.15;4.60;;;;;;;;;;4992866;28;20086;-84
2022/11/14 09:30:34;;;;;;;5.30;4.80;;;;;;;;;;4976657;28;20037;-85
2022/11/14 09:33:00;;;;;;;4.03;3.63;;;;;;;;;;4977985;28;20031;-83
2022/11/14 09:35:27;;;;;;;4.63;3.97;;;;;;;;;;4990942;28;20030;-83
2022/11/14 09:38:03;;;;;;;5.55;4.50;;;;;;;;;;4991451;28;20019;-84
2022/11/14 09:40:31;;;;;;;7.57;4.65;;;;;;;;;;4966100;28;20076;-83
2022/11/14 09:43:00;;;;;;;4.65;4.18;;;;;;;;;;4959430;28;20015;-83
2022/11/14 09:45:27;;;;;;;5.75;4.72;;;;;;;;;;4977338;28;20072;-82
2022/11/14 09:48:06;;;;;;;4.82;4.20;;;;;;;;;;4955734;28;20031;-85
2022/11/14 09:50:42;;;;;;;4.90;4.38;;;;;;;;;;4962227;29;20031;-84
2022/11/14 09:53:15;;;;;;;5.65;4.40;;;;;;;;;;4969560;28;20031;-84
2022/11/14 09:55:41;;;;;;;4.97;4.32;;;;;;;;;;4965616;28;20038;-84
2022/11/14 09:58:11;;;;;;;8.48;4.93;;;;;;;;;;4971528;28;20027;-83
2022/11/14 10:00:46;;;;;;;7.32;4.63;;;;;;;;;;4982492;28;20040;-83
2022/11/14 10:05:56;;;;;;;7.70;4.60;;;;;;;;;;4981973;28;20057;-84
2022/11/14 10:08:28;;;;;;;7.70;4.78;;;;;;;;;;4960911;29;20054;-85
2022/11/14 10:11:02;;;;;;;5.97;5.20;;;;;;;;;;4959160;29;20097;-83
2022/11/14 10:13:47;;;;;;;5.45;4.93;;;;;;;;;;4965430;28;20019;-83
2022/11/14 10:16:18;;;;;;;6.82;4.40;;;;;;;;;;4976303;28;20031;-83
2022/11/14 10:18:53;;;;;;;6.97;4.90;;;;;;;;;;4981688;28;20030;-83
2022/11/14 10:21:22;;;;;;;6.18;4.22;;;;;;;;;;4982745;28;20121;-83
2022/11/14 10:23:48;;;;;;;4.97;4.45;;;;;;;;;;4962111;28;20037;-83
2022/11/14 10:26:14;;;;;;;5.18;4.18;;;;;;;;;;4965927;28;20030;-83
2022/11/14 10:28:53;;;;;;;7.65;5.18;;;;;;;;;;4993907;28;20070;-82
2022/11/14 10:31:30;;;;;;;4.97;4.47;;;;;;;;;;4978147;28;20027;-82
2022/11/14 10:34:00;;;;;;;7.13;4.95;;;;;;;;;;4965172;29;20035;-83
2022/11/14 10:36:26;;;;;;;6.10;4.80;;;;;;;;;;4963714;29;20122;-83
2022/11/14 10:39:01;;;;;;;6.40;4.13;;;;;;;;;;4972213;28;20038;-83
2022/11/14 10:41:28;;;;;;;9.82;4.90;;;;;;;;;;4989628;28;20023;-82
2022/11/14 10:43:55;;;;;;;6.65;4.68;;;;;;;;;;4987515;28;20032;-83
2022/11/14 10:46:32;;;;;;;5.85;4.75;;;;;;;;;;4982637;28;20033;-84
2022/11/14 10:48:58;;;;;;;7.90;5.43;;;;;;;;;;4968642;28;20057;-82
2022/11/14 10:51:31;;;;;;;12.85;5.90;;;;;;;;;;4991292;28;20026;-83
2022/11/14 10:54:00;;;;;;;11.65;6.63;;;;;;;;;;4961945;28;20417;-83
2022/11/14 10:56:26;;;;;;;16.63;7.28;;;;;;;;;;4990882;28;20143;-83
2022/11/14 10:58:52;;;;;;;8.93;6.38;;;;;;;;;;4974942;28;20127;-84
2022/11/14 11:01:37;;;;;;;11.35;6.55;;;;;;;;;;4991076;28;20031;-83
2022/11/14 11:04:21;;;;;;;13.57;7.55;;;;;;;;;;4988045;28;20047;-83
2022/11/14 11:06:48;;;;;;;15.82;7.28;;;;;;;;;;4999426;28;20021;-83
2022/11/14 11:12:02;;;;;;;10.15;7.63;;;;;;;;;;4990669;28;20038;-83
2022/11/14 11:14:28;;;;;;;14.27;8.82;;;;;;;;;;4970627;29;20047;-83
2022/11/14 11:17:27;;;;;;;11.40;7.80;;;;;;;;;;4971987;29;20042;-82
2022/11/14 11:19:53;;;;;;;16.02;8.23;;;;;;;;;;4939555;29;20039;-82
2022/11/14 11:22:25;;;;;;;15.23;7.72;;;;;;;;;;4969072;28;20122;-82
2022/11/14 11:24:51;;;;;;;10.38;8.27;;;;;;;;;;4955426;28;20034;-82
2022/11/14 11:27:22;;;;;;;13.02;8.25;;;;;;;;;;4968253;28;20130;-82
2022/11/14 11:30:02;;;;;;;12.35;7.28;;;;;;;;;;4987594;28;20495;-82
2022/11/14 11:32:28;;;;;;;14.70;8.43;;;;;;;;;;4984134;28;20019;-81
2022/11/14 11:34:56;;;;;;;10.13;7.25;;;;;;;;;;4966417;28;20132;-82
2022/11/14 11:37:41;;;;;;;8.07;6.85;;;;;;;;;;4964252;29;20039;-82
2022/11/14 11:40:16;;;;;;;14.07;7.18;;;;;;;;;;4955036;29;20099;-81
2022/11/14 11:42:45;;;;;;;11.38;6.72;;;;;;;;;;4969238;28;20031;-83
2022/11/14 11:45:16;;;;;;;12.63;7.93;;;;;;;;;;4962909;28;20102;-83
2022/11/14 11:47:46;;;;;;;12.02;8.00;;;;;;;;;;4966390;28;20026;-83
2022/11/14 11:50:17;;;;;;;10.40;8.63;;;;;;;;;;4970875;28;20111;-82
2022/11/14 11:52:55;;;;;;;11.85;9.15;;;;;;;;;;4999301;28;20026;-82
2022/11/14 11:55:24;;;;;;;11.27;8.88;;;;;;;;;;4970527;28;20070;-82
2022/11/14 11:58:01;;;;;;;11.88;9.27;;;;;;;;;;4976791;28;20437;-81
2022/11/14 12:00:28;;;;;;;10.50;9.30;;;;;;;;;;4984046;28;20027;-81
2022/11/14 12:02:54;;;;;;;11.05;8.00;;;;;;;;;;4983933;28;20098;-81
2022/11/14 12:05:20;;;;;;;9.07;7.00;;;;;;;;;;4986902;28;20050;-80
2022/11/14 12:07:50;;;;;;;9.07;6.43;;;;;;;;;;4999034;28;20030;-80
2022/11/14 12:10:24;;;;;;;6.68;5.95;;;;;;;;;;4981907;28;20011;-82
2022/11/14 12:12:54;;;;;;;11.02;6.47;;;;;;;;;;4982213;28;20015;-80
2022/11/14 12:15:32;;;;;;;9.32;6.18;;;;;;;;;;4981906;28;20014;-80
2022/11/14 12:18:16;;;;;;;5.88;5.15;;;;;;;;;;5005641;28;20030;-81
2022/11/14 12:20:52;;;;;;;9.02;4.88;;;;;;;;;;4997461;28;20034;-83
2022/11/14 12:23:26;;;;;;;6.95;5.30;;;;;;;;;;5013024;28;20024;-82
2022/11/14 12:26:10;;;;;;;7.18;5.03;;;;;;;;;;4999426;28;20031;-81
2022/11/14 12:28:58;;;;;;;6.22;4.65;;;;;;;;;;4995364;28;20042;-82
2022/11/14 12:31:25;;;;;;;6.78;4.75;;;;;;;;;;4996871;28;20014;-81
2022/11/14 12:33:55;;;;;;;11.48;6.25;;;;;;;;;;4993604;28;20107;-83
2022/11/14 12:36:27;;;;;;;7.40;5.28;;;;;;;;;;4959662;28;20102;-81
2022/11/14 12:38:54;;;;;;;6.90;4.63;;;;;;;;;;4977299;28;20042;-82
2022/11/14 12:41:27;;;;;;;8.70;4.93;;;;;;;;;;5008517;28;20057;-83
2022/11/14 12:44:20;;;;;;;6.18;5.20;;;;;;;;;;4957906;28;20031;-82
2022/11/14 12:47:04;;;;;;;6.53;4.85;;;;;;;;;;4928194;28;20045;-83
2022/11/14 12:49:38;;;;;;;6.88;5.18;;;;;;;;;;4959671;28;20140;-82
2022/11/14 12:52:04;;;;;;;5.72;4.97;;;;;;;;;;4976659;28;20072;-82
2022/11/14 12:54:44;;;;;;;5.72;4.72;;;;;;;;;;4960502;28;20026;-82
2022/11/14 12:57:46;;;;;;;5.07;4.25;;;;;;;;;;4985456;28;20109;-82
2022/11/14 13:00:07;;;;;;;6.20;4.30;;;;;;;;;;4981815;28;20498;-81
2022/11/14 13:02:45;;;;;;;7.85;4.40;;;;;;;;;;4994678;28;20535;-82
2022/11/14 13:05:16;;;;;;;5.28;4.32;;;;;;;;;;5001438;28;20093;-81
2022/11/14 13:08:01;;;;;;;6.85;4.15;;;;;;;;;;4977456;28;20030;-82
2022/11/14 13:10:32;;;;;;;5.88;4.82;;;;;;;;;;4983921;28;20031;-80
2022/11/14 13:22:07;;;;;;;5.05;4.40;;;;;;;;;;4982333;28;20086;-81
2022/11/14 13:24:51;;;;;;;7.00;5.10;;;;;;;;;;4980417;28;20027;-84
2022/11/14 13:27:31;;;;;;;7.15;4.72;;;;;;;;;;4976338;28;20061;-81
2022/11/14 13:29:59;;;;;;;6.35;5.30;;;;;;;;;;4956522;28;20090;-82
2022/11/14 13:32:40;;;;;;;6.07;4.32;;;;;;;;;;4976074;28;20019;-82
2022/11/14 13:35:16;;;;;;;5.30;4.63;;;;;;;;;;4954410;28;20098;-82
2022/11/14 13:37:48;;;;;;;5.60;3.97;;;;;;;;;;5003202;28;20492;-83
2022/11/14 13:40:14;;;;;;;4.75;4.07;;;;;;;;;;4989832;28;20035;-82
2022/11/14 13:43:13;;;;;;;4.60;3.83;;;;;;;;;;4973854;28;20155;-81
2022/11/14 13:45:56;;;;;;;3.70;3.30;;;;;;;;;;4932511;28;20470;-82
2022/11/14 13:48:28;;;;;;;5.47;4.35;;;;;;;;;;4982511;28;20189;-82
2022/11/14 13:50:57;;;;;;;5.38;4.55;;;;;;;;;;4984657;28;20026;-82
2022/11/14 13:53:24;;;;;;;5.93;4.28;;;;;;;;;;4989694;28;20026;-81
2022/11/14 13:55:53;;;;;;;6.43;4.57;;;;;;;;;;5003426;28;20089;-83
2022/11/14 13:58:22;;;;;;;6.60;4.40;;;;;;;;;;4992740;28;20029;-83
2022/11/14 14:01:03;;;;;;;4.70;3.75;;;;;;;;;;4987584;28;20109;-81
2022/11/14 14:03:40;;;;;;;9.95;4.93;;;;;;;;;;5013001;28;20026;-81
2022/11/14 14:06:15;;;;;;;7.82;5.30;;;;;;;;;;5009176;28;20014;-82
2022/11/14 14:08:41;;;;;;;6.75;4.60;;;;;;;;;;4988947;28;20015;-80
2022/11/14 14:11:08;;;;;;;5.10;3.80;;;;;;;;;;4974868;28;20055;-81
2022/11/14 14:13:43;;;;;;;5.07;4.57;;;;;;;;;;4994883;28;20022;-81
2022/11/14 14:16:15;;;;;;;6.38;4.53;;;;;;;;;;4994645;28;20456;-83
2022/11/14 14:18:41;;;;;;;5.82;4.20;;;;;;;;;;4999866;28;20015;-83
2022/11/14 14:21:23;;;;;;;4.18;3.80;;;;;;;;;;4976374;28;20054;-83
2022/11/14 14:23:52;;;;;;;4.43;4.03;;;;;;;;;;4991711;28;20034;-83
2022/11/14 14:26:18;;;;;;;5.05;3.60;;;;;;;;;;4983061;28;20047;-82
2022/11/14 14:29:03;;;;;;;4.35;3.30;;;;;;;;;;4984706;28;20034;-82
2022/11/14 14:31:40;;;;;;;3.78;3.25;;;;;;;;;;5012509;28;20023;-82
2022/11/14 14:34:22;;;;;;;3.42;2.97;;;;;;;;;;4993468;28;20058;-81
2022/11/14 14:36:50;;;;;;;3.78;3.38;;;;;;;;;;4978984;28;20037;-83
2022/11/14 14:39:18;;;;;;;2.67;2.45;;;;;;;;;;4980053;28;20054;-82
2022/11/14 14:41:44;;;;;;;3.08;2.78;;;;;;;;;;4964244;28;20357;-82
2022/11/14 14:44:32;;;;;;;3.25;2.95;;;;;;;;;;4965338;29;20031;-85
2022/11/14 14:46:59;;;;;;;4.28;3.20;;;;;;;;;;4947793;29;20035;-81
2022/11/14 14:49:30;;;;;;;4.63;3.10;;;;;;;;;;4966405;29;20091;-83
2022/11/14 14:51:56;;;;;;;6.28;4.43;;;;;;;;;;4966726;28;20034;-85
2022/11/14 14:54:23;;;;;;;5.22;3.85;;;;;;;;;;4975926;28;20041;-82
2022/11/14 14:57:01;;;;;;;6.60;5.10;;;;;;;;;;4994709;28;20027;-83
2022/11/14 14:59:28;;;;;;;9.25;5.00;;;;;;;;;;4986702;28;20011;-82
2022/11/14 15:01:56;;;;;;;7.35;5.57;;;;;;;;;;4973142;28;20062;-82
2022/11/14 15:04:24;;;;;;;7.88;5.95;;;;;;;;;;4982946;28;20019;-83
2022/11/14 15:06:51;;;;;;;8.73;6.10;;;;;;;;;;4963677;28;20027;-82